Time;durP1;ratioP1;P1;durP2;ratioP2;P2;SDS_P1;SDS_P2;PMS_P1;PMS_P2;Temp;Humidity;BMP_temperature;BMP_pressure;BME280_temperature;BME280_humidity;BME280_pressure;Samples;Min_cycle;Max_cycle;Signal;HPM_P1;HPM_P2
2022/07/03 00:01:52;;;;;;;9.25;5.28;;;;;;;17.50;86.13;101529.91;4878155;29;20140;-70
2022/07/03 00:04:20;;;;;;;9.55;5.22;;;;;;;17.58;85.29;101545.06;4881446;29;20115;-69
2022/07/03 00:06:45;;;;;;;9.90;6.25;;;;;;;17.51;84.92;101526.91;4881699;29;20037;-70
2022/07/03 00:09:12;;;;;;;14.18;6.55;;;;;;;17.54;84.96;101537.34;4878530;29;20041;-70
2022/07/03 00:11:37;;;;;;;9.02;6.70;;;;;;;17.51;85.60;101540.59;4881655;29;20041;-69
2022/07/03 00:14:03;;;;;;;11.02;6.35;;;;;;;17.46;86.38;101554.19;4878618;29;20469;-69
2022/07/03 00:16:29;;;;;;;8.57;5.30;;;;;;;17.27;88.70;101550.97;4881779;29;20098;-70
2022/07/03 00:18:55;;;;;;;5.35;4.05;;;;;;;17.21;90.90;101556.59;4881788;29;20041;-69
2022/07/03 00:21:26;;;;;;;4.97;3.72;;;;;;;17.11;91.33;101566.31;4899909;29;20488;-70
2022/07/03 00:23:59;;;;;;;6.53;4.00;;;;;;;17.06;88.77;101579.06;4900337;29;20418;-71
2022/07/03 00:26:25;;;;;;;8.38;3.50;;;;;;;17.04;87.08;101568.38;4900144;29;20120;-69
2022/07/03 00:28:50;;;;;;;5.97;3.40;;;;;;;16.94;87.41;101568.22;4892333;29;20116;-70
2022/07/03 00:31:16;;;;;;;6.85;4.25;;;;;;;16.93;87.07;101567.41;4880943;29;20506;-70
2022/07/03 00:33:42;;;;;;;5.28;3.45;;;;;;;16.93;86.44;101572.06;4880987;29;20036;-70
2022/07/03 00:36:08;;;;;;;8.75;3.97;;;;;;;16.84;86.96;101574.34;4864179;29;20033;-68
2022/07/03 00:38:33;;;;;;;7.03;3.85;;;;;;;16.70;87.82;101587.53;4880360;29;20041;-70
2022/07/03 00:41:01;;;;;;;6.13;3.90;;;;;;;16.59;88.03;101582.94;4879998;29;20116;-69
2022/07/03 00:43:26;;;;;;;6.72;3.72;;;;;;;16.59;88.95;101583.81;4880206;29;20044;-70
2022/07/03 00:45:53;;;;;;;6.07;4.30;;;;;;;16.60;89.60;101581.88;4880963;29;20162;-69
2022/07/03 00:48:19;;;;;;;8.63;4.07;;;;;;;16.52;88.74;101582.31;4880640;29;20081;-69
2022/07/03 00:50:47;;;;;;;6.93;3.80;;;;;;;16.57;88.17;101579.66;4880867;29;20029;-70
2022/07/03 00:53:17;;;;;;;6.90;3.85;;;;;;;16.57;89.26;101574.19;4880665;29;20035;-70
2022/07/03 00:55:46;;;;;;;9.05;3.83;;;;;;;16.62;87.15;101574.25;4864166;29;20033;-70
2022/07/03 00:58:16;;;;;;;9.07;3.78;;;;;;;16.65;85.42;101573.75;4862909;29;20430;-69
2022/07/03 01:00:41;;;;;;;8.05;3.53;;;;;;;16.64;85.08;101574.88;4877066;29;20116;-71
2022/07/03 01:03:13;;;;;;;7.00;3.70;;;;;;;16.62;84.78;101571.53;4894680;29;20123;-69
2022/07/03 01:05:43;;;;;;;5.90;3.53;;;;;;;16.64;84.13;101572.13;4899059;29;20025;-70
2022/07/03 01:08:11;;;;;;;6.45;3.58;;;;;;;16.57;87.32;101577.75;4898937;29;20040;-69
2022/07/03 01:10:42;;;;;;;4.72;3.78;;;;;;;16.60;85.03;101573.69;4899216;29;20059;-69
2022/07/03 01:13:24;;;;;;;5.13;3.85;;;;;;;16.56;84.81;101567.91;4882146;29;20040;-69
2022/07/03 01:15:53;;;;;;;;;;;;;;;16.71;81.41;101572.75;4885800;29;20040;-70
2022/07/03 01:18:39;;;;;;;6.40;3.70;;;;;;;16.60;82.38;101576.41;4879930;29;19919;-69
2022/07/03 01:21:15;;;;;;;4.82;3.50;;;;;;;16.52;83.24;101585.03;4880086;29;20040;-69
2022/07/03 01:23:57;;;;;;;5.05;3.72;;;;;;;16.55;84.17;101579.09;4862207;29;20029;-70
2022/07/03 01:26:31;;;;;;;5.00;3.83;;;;;;;16.46;82.95;101576.75;4869053;29;20125;-69
2022/07/03 01:29:04;;;;;;;9.73;4.03;;;;;;;16.42;83.05;101575.56;4859933;29;20037;-70
2022/07/03 01:31:40;;;;;;;4.97;4.10;;;;;;;16.39;83.46;101576.06;4867710;29;20064;-68
2022/07/03 01:34:16;;;;;;;7.65;4.20;;;;;;;16.37;85.76;101572.75;4862890;29;20029;-69
2022/07/03 01:36:49;;;;;;;5.20;3.92;;;;;;;16.33;86.56;101570.78;4862996;29;20036;-68
2022/07/03 01:39:20;;;;;;;6.38;4.25;;;;;;;16.37;85.93;101561.84;4862887;29;20025;-68
2022/07/03 01:41:53;;;;;;;9.85;4.63;;;;;;;16.37;84.24;101570.03;4862358;29;20096;-69
2022/07/03 01:44:26;;;;;;;7.78;5.07;;;;;;;16.30;86.61;101561.16;4858304;29;20532;-68
2022/07/03 01:47:02;;;;;;;8.50;5.07;;;;;;;16.31;86.07;101568.28;4861737;29;20033;-68
2022/07/03 01:49:32;;;;;;;10.35;5.43;;;;;;;16.28;85.17;101574.25;4877240;29;20330;-68
2022/07/03 01:51:58;;;;;;;8.25;5.10;;;;;;;16.23;86.98;101574.97;4862959;29;20100;-68
2022/07/03 01:54:29;;;;;;;6.68;4.70;;;;;;;16.19;87.48;101581.19;4862718;29;20482;-70
2022/07/03 01:56:55;;;;;;;7.43;5.13;;;;;;;16.15;88.61;101569.06;4862840;29;20060;-69
2022/07/03 01:59:20;;;;;;;9.85;5.35;;;;;;;16.19;87.21;101571.06;4862712;29;20586;-69
2022/07/03 02:02:00;;;;;;;6.22;5.22;;;;;;;16.16;87.74;101565.28;4859522;29;20037;-69
2022/07/03 02:04:34;;;;;;;8.20;5.35;;;;;;;16.09;88.25;101566.25;4862309;29;20468;-69
2022/07/03 02:07:12;;;;;;;7.47;5.25;;;;;;;16.09;88.24;101565.41;4868764;29;20025;-68
2022/07/03 02:09:47;;;;;;;8.20;5.40;;;;;;;16.10;89.06;101553.44;4878316;29;20065;-70
2022/07/03 02:12:14;;;;;;;9.52;5.75;;;;;;;15.99;89.50;101559.75;4878931;29;20021;-69
2022/07/03 02:14:44;;;;;;;13.73;5.32;;;;;;;15.95;91.07;101554.78;4886205;29;20036;-68
2022/07/03 02:17:18;;;;;;;6.53;5.40;;;;;;;15.90;91.76;101551.97;4897483;29;20028;-70
2022/07/03 02:19:57;;;;;;;9.13;5.40;;;;;;;15.90;91.83;101545.69;4897974;29;20037;-69
2022/07/03 02:22:30;;;;;;;8.65;5.68;;;;;;;15.90;91.99;101542.97;4896803;29;20040;-69
2022/07/03 02:25:08;;;;;;;8.05;5.28;;;;;;;15.91;90.63;101544.59;4860491;29;20036;-69
2022/07/03 02:27:44;;;;;;;7.72;5.22;;;;;;;15.92;92.01;101557.19;4860677;29;20377;-69
2022/07/03 02:30:10;;;;;;;7.10;5.47;;;;;;;15.79;90.71;101543.81;4860234;29;20059;-69
2022/07/03 02:32:42;;;;;;;9.43;5.55;;;;;;;15.80;93.27;101546.31;4860329;29;20482;-69
2022/07/03 02:35:11;;;;;;;8.68;5.40;;;;;;;15.79;92.86;101555.56;4887569;29;20116;-69
2022/07/03 02:38:16;;;;;;;8.82;5.45;;;;;;;15.83;92.25;101561.38;4893024;29;20057;-69
2022/07/03 02:41:02;;;;;;;9.45;5.43;;;;;;;15.75;93.57;101557.94;4877411;29;20072;-69
2022/07/03 02:43:57;;;;;;;6.85;5.55;;;;;;;15.68;95.34;101559.97;4879066;29;20057;-68
2022/07/03 02:46:50;;;;;;;7.53;5.10;;;;;;;15.69;93.96;101561.63;4869147;29;20041;-69
2022/07/03 02:49:44;;;;;;;7.85;5.00;;;;;;;15.69;94.14;101561.63;4860207;29;20100;-68
2022/07/03 02:52:44;;;;;;;10.18;5.47;;;;;;;15.69;92.93;101555.34;4860298;29;20099;-68
2022/07/03 02:55:45;;;;;;;7.68;4.97;;;;;;;15.66;92.92;101550.38;4859929;29;20062;-70
2022/07/03 02:58:29;;;;;;;6.47;5.13;;;;;;;15.65;93.19;101549.53;4860510;29;20041;-69
2022/07/03 03:01:29;;;;;;;6.47;5.05;;;;;;;15.61;93.85;101551.09;4856298;29;20026;-68
2022/07/03 03:04:28;;;;;;;8.80;5.10;;;;;;;15.59;93.75;101550.50;4876311;29;20049;-69
2022/07/03 03:06:59;;;;;;;5.32;4.70;;;;;;;15.54;96.01;101550.41;4878741;29;20033;-69
2022/07/03 03:09:32;;;;;;;6.70;5.22;;;;;;;15.40;96.93;101552.56;4878175;29;20033;-68
2022/07/03 03:12:01;;;;;;;5.28;4.47;;;;;;;15.41;97.75;101560.53;4877570;29;20151;-68
2022/07/03 03:14:37;;;;;;;8.90;4.93;;;;;;;15.34;98.80;101557.09;4878480;29;20047;-69
2022/07/03 03:17:05;;;;;;;7.50;5.07;;;;;;;15.37;98.41;101553.88;4878723;29;20036;-69
2022/07/03 03:19:41;;;;;;;5.55;4.43;;;;;;;15.36;98.69;101571.31;4876680;29;20421;-69
2022/07/03 03:22:40;;;;;;;6.70;4.85;;;;;;;15.40;96.70;101564.31;4878654;29;20025;-68
2022/07/03 03:25:06;;;;;;;7.43;5.10;;;;;;;15.36;97.40;101562.31;4878375;29;20093;-69
2022/07/03 03:27:31;;;;;;;9.68;5.22;;;;;;;15.32;96.90;101561.94;4876980;29;20048;-69
2022/07/03 03:29:57;;;;;;;8.88;5.68;;;;;;;15.30;98.04;101565.97;4878473;29;20061;-70
2022/07/03 03:32:24;;;;;;;8.00;5.20;;;;;;;15.30;98.69;101560.53;4878066;29;20040;-68
2022/07/03 03:34:50;;;;;;;5.70;4.82;;;;;;;15.34;97.01;101568.00;4878555;29;20063;-69
2022/07/03 03:37:15;;;;;;;7.60;4.68;;;;;;;15.36;96.17;101571.31;4878353;29;20041;-69
2022/07/03 03:39:41;;;;;;;9.88;4.97;;;;;;;15.33;96.20;101569.06;4877068;29;20063;-70
2022/07/03 03:42:08;;;;;;;7.43;4.80;;;;;;;15.32;96.53;101574.75;4882837;29;20116;-69
2022/07/03 03:44:33;;;;;;;7.75;4.80;;;;;;;15.27;96.94;101566.47;4878102;29;20029;-68
2022/07/03 03:46:59;;;;;;;7.78;4.50;;;;;;;15.29;94.34;101569.78;4878432;29;20037;-69
2022/07/03 03:49:24;;;;;;;6.00;4.35;;;;;;;15.28;96.40;101568.09;4878237;29;20029;-69
2022/07/03 03:51:49;;;;;;;8.35;4.28;;;;;;;15.32;92.61;101569.28;4878428;29;20480;-69
2022/07/03 03:54:15;;;;;;;4.57;4.07;;;;;;;15.29;94.46;101567.88;4877867;29;20481;-69
2022/07/03 03:56:40;;;;;;;5.38;4.45;;;;;;;15.34;91.03;101569.88;4877254;29;20029;-68
2022/07/03 03:59:05;;;;;;;7.72;4.20;;;;;;;15.33;89.45;101562.78;4878372;29;20068;-69
2022/07/03 04:01:31;;;;;;;6.38;3.75;;;;;;;15.33;90.48;101563.59;4875044;29;20056;-69
2022/07/03 04:03:58;;;;;;;6.13;3.97;;;;;;;15.28;93.62;101565.38;4877557;29;20065;-69
2022/07/03 04:06:24;;;;;;;6.68;3.90;;;;;;;15.36;90.00;101567.75;4878040;29;20037;-69
2022/07/03 04:08:49;;;;;;;7.05;3.97;;;;;;;15.37;91.88;101563.97;4878173;29;20056;-69
2022/07/03 04:11:14;;;;;;;7.80;4.15;;;;;;;15.39;89.90;101567.28;4877037;29;20164;-69
2022/07/03 04:13:39;;;;;;;5.80;3.92;;;;;;;15.43;88.32;101573.91;4892259;29;20120;-68
2022/07/03 04:16:05;;;;;;;6.05;4.53;;;;;;;15.45;88.54;101568.22;4897630;29;20036;-69
2022/07/03 04:18:30;;;;;;;9.85;4.00;;;;;;;15.45;86.11;101571.75;4879556;29;20052;-69
2022/07/03 04:20:55;;;;;;;6.25;4.13;;;;;;;15.44;86.42;101574.72;4881114;29;20110;-69
2022/07/03 04:23:21;;;;;;;7.65;3.83;;;;;;;15.45;86.52;101569.03;4880175;29;20041;-68
2022/07/03 04:25:46;;;;;;;8.70;3.95;;;;;;;15.39;86.05;101568.09;4890308;29;20068;-68
2022/07/03 04:28:12;;;;;;;5.53;3.83;;;;;;;15.38;85.38;101574.63;4898854;29;20540;-69
2022/07/03 04:30:37;;;;;;;8.15;3.95;;;;;;;15.38;85.94;101577.38;4899839;29;20081;-68
2022/07/03 04:33:02;;;;;;;7.32;4.45;;;;;;;15.35;87.67;101566.94;4899679;29;20032;-69
2022/07/03 04:35:28;;;;;;;8.75;4.40;;;;;;;15.38;85.79;101577.38;4882794;29;20043;-69
2022/07/03 04:37:53;;;;;;;8.50;4.35;;;;;;;15.40;85.58;101577.94;4899818;29;20131;-69
2022/07/03 04:40:19;;;;;;;8.50;4.72;;;;;;;15.42;86.10;101583.16;4891671;29;20053;-69
2022/07/03 04:42:44;;;;;;;5.13;4.35;;;;;;;15.40;84.98;101585.31;4862497;29;20037;-69
2022/07/03 04:45:09;;;;;;;9.35;4.15;;;;;;;15.39;84.87;101580.91;4864462;29;20025;-70
2022/07/03 04:47:35;;;;;;;7.55;4.20;;;;;;;15.38;84.79;101588.28;4898167;29;20041;-69
2022/07/03 04:50:00;;;;;;;4.60;4.10;;;;;;;15.41;85.93;101592.41;4899429;29;20045;-69
2022/07/03 04:52:25;;;;;;;8.20;4.60;;;;;;;15.42;85.68;101588.59;4899207;29;20043;-68
2022/07/03 04:54:50;;;;;;;6.97;4.22;;;;;;;15.45;84.62;101600.94;4896414;29;20025;-69
2022/07/03 04:57:16;;;;;;;7.47;4.25;;;;;;;15.37;85.13;101591.25;4880380;29;20032;-69
2022/07/03 04:59:41;;;;;;;6.40;4.30;;;;;;;15.38;85.94;101595.59;4880783;29;20033;-69
2022/07/03 05:02:07;;;;;;;8.70;3.85;;;;;;;15.36;86.57;101606.75;4876379;29;20053;-69
2022/07/03 05:04:32;;;;;;;8.48;4.43;;;;;;;15.41;85.86;101595.13;4880459;29;20037;-69
2022/07/03 05:06:58;;;;;;;7.82;4.28;;;;;;;15.44;84.80;101593.81;4877915;29;20068;-68
2022/07/03 05:09:23;;;;;;;8.48;4.13;;;;;;;15.44;84.81;101600.09;4879035;29;20065;-69
2022/07/03 05:11:48;;;;;;;8.05;4.25;;;;;;;15.50;87.13;101595.59;4880198;29;20066;-70
2022/07/03 05:14:14;;;;;;;4.43;4.00;;;;;;;15.47;85.71;101593.34;4880693;29;20056;-70
2022/07/03 05:16:39;;;;;;;7.35;4.00;;;;;;;15.46;85.50;101594.41;4877201;29;20045;-69
2022/07/03 05:19:05;;;;;;;7.43;4.10;;;;;;;15.42;86.18;101594.88;4880384;29;20041;-68
2022/07/03 05:21:31;;;;;;;7.35;3.95;;;;;;;15.38;85.88;101599.19;4880419;29;20391;-70
2022/07/03 05:23:56;;;;;;;5.97;4.00;;;;;;;15.42;87.02;101611.25;4880135;29;20032;-69
2022/07/03 05:26:21;;;;;;;5.55;4.05;;;;;;;15.42;86.42;101605.78;4880312;29;20041;-68
2022/07/03 05:28:46;;;;;;;7.18;3.95;;;;;;;15.44;86.97;101602.81;4879944;29;20085;-69
2022/07/03 05:31:12;;;;;;;7.47;4.20;;;;;;;15.49;87.38;101604.84;4879186;29;20044;-68
2022/07/03 05:33:37;;;;;;;7.95;3.95;;;;;;;15.52;87.19;101598.91;4879741;29;20108;-68
2022/07/03 05:36:04;;;;;;;9.43;4.13;;;;;;;15.57;88.23;101608.03;4882008;29;20035;-69
2022/07/03 05:41:14;;;;;;;6.15;3.95;;;;;;;15.73;87.05;101613.81;4898567;29;20052;-70
2022/07/03 05:43:39;;;;;;;6.78;3.55;;;;;;;15.79;86.19;101617.50;4888545;29;20041;-68
2022/07/03 05:46:04;;;;;;;7.53;4.28;;;;;;;15.82;83.76;101615.16;4879905;29;20033;-69
2022/07/03 05:48:30;;;;;;;6.88;3.92;;;;;;;15.77;85.01;101610.38;4879611;29;20036;-69
2022/07/03 05:50:56;;;;;;;5.97;3.75;;;;;;;15.81;85.43;101612.66;4879862;29;20483;-70
2022/07/03 05:53:21;;;;;;;7.40;3.88;;;;;;;15.84;83.78;101614.91;4879681;29;20115;-69
2022/07/03 05:55:47;;;;;;;8.00;3.85;;;;;;;15.87;84.60;101607.03;4880032;29;20407;-69
2022/07/03 05:58:12;;;;;;;6.72;3.97;;;;;;;15.93;84.04;101614.25;4879057;29;20582;-68
2022/07/03 06:00:38;;;;;;;9.43;3.72;;;;;;;15.99;84.24;101626.13;4877031;29;20033;-69
2022/07/03 06:03:03;;;;;;;9.02;4.32;;;;;;;16.04;84.40;101625.41;4878150;29;20077;-69
2022/07/03 06:05:29;;;;;;;10.65;4.18;;;;;;;16.09;84.05;101618.13;4879404;29;20025;-69
2022/07/03 06:07:54;;;;;;;9.50;4.22;;;;;;;16.18;85.29;101629.47;4879601;29;20075;-70
2022/07/03 06:10:20;;;;;;;12.55;4.35;;;;;;;16.22;84.67;101625.19;4879063;29;20473;-68
2022/07/03 06:12:45;;;;;;;6.60;3.75;;;;;;;16.32;84.26;101627.31;4878659;29;20469;-70
2022/07/03 06:15:10;;;;;;;7.13;3.92;;;;;;;16.38;84.60;101620.00;4879464;29;20484;-69
2022/07/03 06:17:36;;;;;;;8.48;4.07;;;;;;;16.44;83.63;101617.16;4878922;29;20545;-69
2022/07/03 06:20:03;;;;;;;11.27;4.85;;;;;;;16.51;83.63;101629.81;4879147;29;20029;-69
2022/07/03 06:22:28;;;;;;;7.95;4.20;;;;;;;16.54;84.62;101632.06;4878775;29;20441;-69
2022/07/03 06:24:54;;;;;;;7.60;4.70;;;;;;;16.62;85.11;101634.38;4878844;29;20040;-68
2022/07/03 06:27:19;;;;;;;6.13;3.85;;;;;;;16.63;84.59;101625.13;4892728;29;20045;-69
2022/07/03 06:29:44;;;;;;;10.40;3.80;;;;;;;16.67;83.80;101629.03;4879040;29;20045;-69
2022/07/03 06:32:10;;;;;;;8.20;4.40;;;;;;;16.67;83.95;101629.03;4879128;29;20040;-69
2022/07/03 06:34:35;;;;;;;9.50;3.92;;;;;;;16.71;84.10;101624.69;4877603;29;20036;-69
2022/07/03 06:37:08;;;;;;;5.75;3.50;;;;;;;16.68;84.57;101625.19;4877289;29;20044;-70
2022/07/03 06:39:43;;;;;;;8.50;4.28;;;;;;;16.71;84.17;101632.91;4880391;29;20385;-68
2022/07/03 06:42:19;;;;;;;9.70;4.25;;;;;;;16.75;84.98;101625.03;4880602;29;20063;-70
2022/07/03 06:44:46;;;;;;;7.57;3.80;;;;;;;16.82;85.29;101629.28;4868898;29;20116;-69
2022/07/03 06:47:12;;;;;;;6.85;3.70;;;;;;;16.87;84.43;101635.94;4897088;29;20115;-69
2022/07/03 06:49:37;;;;;;;6.57;3.78;;;;;;;16.90;84.39;101632.72;4897010;29;20465;-69
2022/07/03 06:52:02;;;;;;;9.60;4.15;;;;;;;16.93;83.46;101629.47;4890971;29;20025;-70
2022/07/03 06:54:28;;;;;;;7.15;3.80;;;;;;;16.95;82.37;101632.78;4861970;29;20037;-70
2022/07/03 06:56:53;;;;;;;9.05;4.45;;;;;;;16.98;82.73;101633.13;4878645;29;20036;-69
2022/07/03 06:59:19;;;;;;;7.55;3.85;;;;;;;17.07;83.13;101636.25;4897487;29;20072;-69
2022/07/03 07:01:44;;;;;;;8.20;4.20;;;;;;;17.07;83.56;101633.50;4879333;29;20559;-71
2022/07/03 07:04:09;;;;;;;12.25;3.78;;;;;;;17.10;83.74;101633.00;4878628;29;20384;-70
2022/07/03 07:06:35;;;;;;;10.65;4.50;;;;;;;17.14;84.32;101633.34;4878418;29;20033;-72
2022/07/03 07:09:01;;;;;;;8.57;3.92;;;;;;;17.20;83.17;101634.28;4878415;29;20040;-71
2022/07/03 07:11:26;;;;;;;9.15;3.85;;;;;;;17.29;84.22;101635.50;4877489;29;20036;-69
2022/07/03 07:13:51;;;;;;;6.05;3.67;;;;;;;17.36;82.91;101627.91;4878529;29;20413;-70
2022/07/03 07:16:16;;;;;;;8.15;3.80;;;;;;;17.44;82.12;101627.50;4878766;29;20135;-72
2022/07/03 07:18:43;;;;;;;7.22;4.07;;;;;;;17.50;79.75;101631.16;4878277;29;20040;-71
2022/07/03 07:21:10;;;;;;;9.68;3.65;;;;;;;17.45;80.26;101637.38;4877367;29;20112;-70
2022/07/03 07:23:35;;;;;;;10.15;3.92;;;;;;;17.59;80.75;101637.00;4878509;29;20037;-70
2022/07/03 07:26:01;;;;;;;13.23;3.70;;;;;;;17.64;79.89;101634.34;4878031;29;20132;-70
2022/07/03 07:28:26;;;;;;;6.88;3.50;;;;;;;17.65;78.76;101636.81;4878354;29;20036;-70
2022/07/03 07:30:55;;;;;;;6.50;3.58;;;;;;;17.64;77.95;101640.63;4878496;29;20101;-70
2022/07/03 07:33:20;;;;;;;9.85;3.60;;;;;;;17.64;79.11;101637.91;4878280;29;20511;-70
2022/07/03 07:35:46;;;;;;;9.63;3.63;;;;;;;17.72;78.83;101644.84;4878376;29;20044;-71
2022/07/03 07:38:11;;;;;;;10.30;3.65;;;;;;;17.71;79.15;101640.47;4878590;29;20064;-70
2022/07/03 07:40:36;;;;;;;6.50;3.20;;;;;;;17.80;76.32;101649.03;4875970;29;20037;-70
2022/07/03 07:43:02;;;;;;;7.65;3.25;;;;;;;17.77;77.70;101655.03;4888284;29;20037;-70
2022/07/03 07:45:27;;;;;;;5.75;2.88;;;;;;;17.85;77.02;101654.59;4897030;29;20033;-71
2022/07/03 07:47:53;;;;;;;7.88;3.50;;;;;;;17.88;76.31;101649.44;4898214;29;20036;-71
2022/07/03 07:50:18;;;;;;;6.78;3.22;;;;;;;17.97;75.70;101646.28;4900748;29;20035;-70
2022/07/03 07:52:43;;;;;;;6.35;3.20;;;;;;;18.03;75.94;101645.28;4900456;29;20033;-70
2022/07/03 07:55:09;;;;;;;8.13;3.50;;;;;;;18.09;76.82;101643.41;4895640;29;20040;-69
2022/07/03 07:57:38;;;;;;;7.85;3.38;;;;;;;18.14;75.69;101643.47;4866864;29;20069;-68
2022/07/03 08:00:06;;;;;;;9.05;4.10;;;;;;;18.13;75.63;101652.75;4862974;29;20093;-70
2022/07/03 08:07:59;;;;;;;9.18;3.65;;;;;;;18.27;76.37;101653.19;4889388;29;20052;-69
2022/07/03 08:10:25;;;;;;;7.65;4.25;;;;;;;18.27;74.82;101659.50;4900167;29;20029;-70
2022/07/03 08:12:50;;;;;;;7.07;3.90;;;;;;;18.28;75.27;101650.19;4900587;29;20482;-69
2022/07/03 08:15:15;;;;;;;5.93;3.28;;;;;;;18.31;73.71;101646.13;4900554;29;20032;-70
2022/07/03 08:17:40;;;;;;;8.45;3.63;;;;;;;18.35;74.83;101650.00;4880770;29;20033;-69
2022/07/03 08:20:06;;;;;;;8.70;3.53;;;;;;;18.46;76.07;101651.75;4881475;29;20033;-70
2022/07/03 08:22:31;;;;;;;9.95;3.80;;;;;;;18.49;74.66;101653.97;4881251;29;20457;-70
2022/07/03 08:24:57;;;;;;;6.53;3.72;;;;;;;18.44;73.80;101642.97;4881457;29;20068;-70
2022/07/03 08:27:22;;;;;;;8.73;3.92;;;;;;;18.53;74.61;101652.38;4882618;29;20046;-70
2022/07/03 08:29:47;;;;;;;10.18;4.07;;;;;;;18.64;75.38;101652.47;4899595;29;20369;-70
2022/07/03 08:32:12;;;;;;;11.27;4.30;;;;;;;18.73;75.01;101651.72;4899724;29;20092;-71
2022/07/03 08:34:38;;;;;;;8.77;4.28;;;;;;;18.83;74.92;101648.28;4896591;29;20446;-70
2022/07/03 08:37:03;;;;;;;8.40;3.60;;;;;;;18.98;75.69;101649.50;4864553;29;20548;-71
2022/07/03 08:39:29;;;;;;;10.90;4.50;;;;;;;19.03;74.29;101649.56;4880534;29;20089;-70
2022/07/03 08:41:56;;;;;;;8.35;3.75;;;;;;;18.97;70.92;101651.44;4881146;29;20516;-70
2022/07/03 08:44:24;;;;;;;8.57;3.35;;;;;;;19.02;72.69;101653.38;4878311;29;20469;-71
2022/07/03 08:46:50;;;;;;;7.00;3.47;;;;;;;19.04;71.89;101646.56;4879273;29;20120;-69
2022/07/03 08:49:17;;;;;;;7.43;2.92;;;;;;;19.07;70.46;101661.66;4880885;29;20037;-71
2022/07/03 08:51:44;;;;;;;7.60;3.05;;;;;;;19.07;70.71;101653.44;4880039;29;20068;-71
2022/07/03 08:54:10;;;;;;;7.75;3.33;;;;;;;19.15;71.90;101641.16;4880897;29;20068;-70
2022/07/03 08:56:35;;;;;;;5.88;3.40;;;;;;;19.13;71.07;101647.72;4880685;29;20068;-70
2022/07/03 08:59:03;;;;;;;9.38;3.85;;;;;;;19.13;71.13;101642.22;4879457;29;20513;-70
2022/07/03 09:01:29;;;;;;;5.30;3.20;;;;;;;19.23;72.22;101646.13;4878453;29;20488;-71
2022/07/03 09:03:56;;;;;;;6.00;2.78;;;;;;;19.26;69.56;101648.34;4862864;29;20053;-70
2022/07/03 09:06:22;;;;;;;5.55;3.10;;;;;;;19.20;69.06;101641.97;4880810;29;20128;-70
2022/07/03 09:08:50;;;;;;;6.50;3.10;;;;;;;19.25;69.52;101644.78;4880368;29;20037;-70
2022/07/03 09:11:16;;;;;;;6.07;3.20;;;;;;;19.28;68.91;101648.94;4891370;29;20064;-70
2022/07/03 09:13:41;;;;;;;7.28;2.90;;;;;;;19.32;69.30;101638.22;4872622;29;20061;-70
2022/07/03 09:16:15;;;;;;;6.15;2.60;;;;;;;19.44;70.09;101649.84;4861969;29;20068;-70
2022/07/03 09:18:42;;;;;;;6.43;3.35;;;;;;;19.45;67.88;101648.75;4861733;29;20381;-70
2022/07/03 09:21:11;;;;;;;5.47;3.30;;;;;;;19.50;68.06;101645.22;4861609;29;20473;-70
2022/07/03 09:23:39;;;;;;;4.80;3.13;;;;;;;19.51;67.59;101650.44;4861392;29;20033;-69
2022/07/03 09:26:05;;;;;;;5.43;3.05;;;;;;;19.55;67.04;101650.72;4861840;29;20367;-73
2022/07/03 09:28:47;;;;;;;5.38;2.40;;;;;;;19.59;68.21;101662.81;4864175;29;20041;-73
2022/07/03 09:31:14;;;;;;;6.50;2.70;;;;;;;19.68;67.15;101657.66;4875284;29;20509;-74
2022/07/03 09:34:01;;;;;;;4.95;2.67;;;;;;;19.73;67.31;101653.03;4898707;29;20484;-70
2022/07/03 09:36:46;;;;;;;4.85;3.00;;;;;;;19.83;67.94;101668.75;4898832;29;20105;-70
2022/07/03 09:39:15;;;;;;;6.53;3.70;;;;;;;19.88;67.06;101673.44;4898760;29;20536;-69
2022/07/03 09:42:04;;;;;;;5.68;3.80;;;;;;;19.95;67.41;101676.78;4898459;29;20033;-70
2022/07/03 09:44:45;;;;;;;5.30;3.42;;;;;;;19.99;67.96;101675.16;4868669;29;20474;-71
2022/07/03 09:47:18;;;;;;;5.17;3.40;;;;;;;19.98;67.69;101674.28;4861391;29;20120;-71
2022/07/03 09:49:47;;;;;;;7.30;3.60;;;;;;;19.92;67.70;101675.38;4860992;29;20031;-71
2022/07/03 09:52:32;;;;;;;5.43;3.10;;;;;;;19.95;68.11;101674.84;4873433;29;20109;-71
2022/07/03 09:55:09;;;;;;;8.50;4.07;;;;;;;20.05;67.56;101676.81;4869643;29;20048;-69
2022/07/03 09:57:37;;;;;;;6.72;3.83;;;;;;;20.11;67.31;101669.41;4878822;29;20071;-71
2022/07/03 10:00:15;;;;;;;5.80;3.20;;;;;;;20.16;66.95;101661.19;4863001;29;20048;-69
2022/07/03 10:03:00;;;;;;;3.95;3.00;;;;;;;20.33;65.94;101670.00;4859477;29;20589;-69
2022/07/03 10:05:32;;;;;;;3.47;2.10;;;;;;;20.38;65.00;101662.88;4862641;29;20089;-71
2022/07/03 10:08:06;;;;;;;7.18;2.80;;;;;;;20.37;63.83;101664.81;4877754;29;20044;-69
2022/07/03 10:10:37;;;;;;;5.50;2.65;;;;;;;20.27;64.76;101671.09;4869694;29;20522;-70
2022/07/03 10:13:04;;;;;;;4.45;2.83;;;;;;;20.24;63.90;101671.63;4880693;29;20480;-69
2022/07/03 10:15:31;;;;;;;6.82;2.90;;;;;;;20.21;65.15;101672.19;4897904;29;20028;-71
2022/07/03 10:17:59;;;;;;;3.63;2.35;;;;;;;20.09;63.96;101669.66;4897591;29;20103;-68
2022/07/03 10:20:32;;;;;;;4.90;2.50;;;;;;;20.06;64.06;101672.13;4887728;29;20029;-69
2022/07/03 10:22:58;;;;;;;4.00;2.28;;;;;;;20.03;64.28;101669.94;4879272;29;20087;-71
2022/07/03 10:25:23;;;;;;;4.28;2.40;;;;;;;20.10;65.23;101678.75;4878328;29;20431;-70
2022/07/03 10:27:49;;;;;;;6.18;2.90;;;;;;;20.15;64.91;101678.75;4878715;29;20115;-71
2022/07/03 10:30:17;;;;;;;5.07;2.60;;;;;;;20.15;65.66;101682.31;4878657;29;20055;-69
2022/07/03 10:32:45;;;;;;;4.75;3.00;;;;;;;20.26;64.95;101677.72;4878929;29;20044;-69
2022/07/03 10:35:13;;;;;;;4.35;2.60;;;;;;;20.42;65.01;101675.00;4879154;29;20112;-68
2022/07/03 10:37:49;;;;;;;8.30;2.67;;;;;;;20.53;64.62;101682.16;4878948;29;20112;-69
2022/07/03 10:46:10;;;;;;;2.30;1.60;;;;;;;20.56;60.63;101683.53;4878891;29;20105;-69
2022/07/03 10:49:05;;;;;;;5.20;1.67;;;;;;;20.53;61.04;101687.66;4878652;29;20072;-70
2022/07/03 10:51:50;;;;;;;3.25;1.90;;;;;;;20.45;59.34;101689.00;4878269;29;20025;-68
2022/07/03 10:54:20;;;;;;;4.32;2.40;;;;;;;20.35;59.85;101692.56;4881761;29;20036;-70
2022/07/03 10:56:57;;;;;;;3.25;1.90;;;;;;;20.36;60.83;101691.47;4859925;29;20055;-70
2022/07/03 10:59:22;;;;;;;4.53;2.03;;;;;;;20.33;61.25;101683.75;4860657;29;20489;-69
2022/07/03 11:01:48;;;;;;;6.22;2.40;;;;;;;20.35;59.51;101678.84;4858620;29;20120;-72
2022/07/03 11:04:13;;;;;;;3.40;2.40;;;;;;;20.32;58.85;101690.38;4870481;29;20047;-70
2022/07/03 11:06:44;;;;;;;5.05;2.40;;;;;;;20.24;59.99;101690.88;4877648;29;20029;-71
2022/07/03 11:09:13;;;;;;;3.88;2.10;;;;;;;20.22;60.26;101686.78;4878490;29;20049;-70
2022/07/03 11:12:00;;;;;;;6.55;2.42;;;;;;;20.44;60.55;101678.28;4878640;29;20040;-72
2022/07/03 11:14:27;;;;;;;7.63;2.65;;;;;;;20.70;59.66;101673.72;4877821;29;20086;-70
2022/07/03 11:17:20;;;;;;;4.20;2.63;;;;;;;20.97;59.49;101672.59;4861758;29;20078;-70
2022/07/03 11:23:02;;;;;;;6.22;2.40;;;;;;;21.03;58.66;101669.59;4872773;29;20101;-73
2022/07/03 11:25:48;;;;;;;5.57;2.70;;;;;;;20.98;57.03;101664.06;4863881;29;20165;-71
2022/07/03 11:28:34;;;;;;;4.47;2.70;;;;;;;20.83;58.72;101675.91;4863505;29;20089;-72
2022/07/03 11:34:00;;;;;;;4.35;2.15;;;;;;;21.01;58.36;101665.47;4863685;29;20053;-71
2022/07/03 11:36:34;;;;;;;5.85;2.78;;;;;;;21.01;59.35;101665.47;4872576;29;20064;-71
2022/07/03 11:38:59;;;;;;;5.20;3.60;;;;;;;21.05;59.08;101664.63;4871766;29;20029;-71
2022/07/03 11:45:15;;;;;;;6.63;3.80;;;;;;;20.76;60.74;101663.50;4871927;29;20309;-70
2022/07/03 11:48:23;;;;;;;7.63;3.20;;;;;;;20.68;60.86;101670.38;4886849;29;20036;-74
2022/07/03 11:54:19;;;;;;;;;;;;;;;20.80;61.21;101659.13;4868546;29;20113;-70
2022/07/03 11:56:44;;;;;;;3.15;2.60;;;;;;;21.01;60.59;101655.25;4898582;29;19916;-71
2022/07/03 11:59:09;;;;;;;2.85;2.10;;;;;;;21.13;58.95;101656.91;4900598;29;20036;-70
2022/07/03 12:01:37;;;;;;;4.57;1.92;;;;;;;21.25;58.47;101666.53;4889322;29;20065;-70
2022/07/03 12:04:07;;;;;;;2.85;1.40;;;;;;;21.35;56.83;101657.44;4881619;29;20064;-69